sensor_id;sensor_type;location;lat;lon;timestamp;P1;durP1;ratioP1;P2;durP2;ratioP2
26319;SDS011;14024;52.226;5.200;2022-12-26T00:00:32;44.38;;;19.27;;
26319;SDS011;14024;52.226;5.200;2022-12-26T00:02:58;47.25;;;19.45;;
26319;SDS011;14024;52.226;5.200;2022-12-26T00:05:24;44.35;;;19.80;;
26319;SDS011;14024;52.226;5.200;2022-12-26T00:07:50;42.65;;;18.73;;
26319;SDS011;14024;52.226;5.200;2022-12-26T00:10:16;46.80;;;19.20;;
26319;SDS011;14024;52.226;5.200;2022-12-26T00:12:42;52.97;;;21.35;;
26319;SDS011;14024;52.226;5.200;2022-12-26T00:15:08;49.65;;;19.77;;
26319;SDS011;14024;52.226;5.200;2022-12-26T00:17:34;41.25;;;18.45;;
26319;SDS011;14024;52.226;5.200;2022-12-26T00:20:00;45.25;;;19.80;;
26319;SDS011;14024;52.226;5.200;2022-12-26T00:22:26;44.13;;;20.52;;
26319;SDS011;14024;52.226;5.200;2022-12-26T00:24:52;45.20;;;19.88;;
26319;SDS011;14024;52.226;5.200;2022-12-26T00:27:18;43.47;;;20.17;;
26319;SDS011;14024;52.226;5.200;2022-12-26T00:29:46;43.80;;;19.67;;
26319;SDS011;14024;52.226;5.200;2022-12-26T00:32:12;45.63;;;20.75;;
26319;SDS011;14024;52.226;5.200;2022-12-26T00:34:38;49.63;;;20.75;;
26319;SDS011;14024;52.226;5.200;2022-12-26T00:37:03;47.72;;;21.15;;
26319;SDS011;14024;52.226;5.200;2022-12-26T00:39:29;45.85;;;21.35;;
26319;SDS011;14024;52.226;5.200;2022-12-26T00:41:55;49.22;;;21.77;;
26319;SDS011;14024;52.226;5.200;2022-12-26T00:44:21;49.92;;;22.70;;
26319;SDS011;14024;52.226;5.200;2022-12-26T00:46:47;50.40;;;21.85;;
26319;SDS011;14024;52.226;5.200;2022-12-26T00:49:13;53.13;;;22.52;;
26319;SDS011;14024;52.226;5.200;2022-12-26T00:51:39;51.28;;;22.45;;
26319;SDS011;14024;52.226;5.200;2022-12-26T00:54:05;51.65;;;23.52;;
26319;SDS011;14024;52.226;5.200;2022-12-26T00:56:31;48.97;;;22.23;;
26319;SDS011;14024;52.226;5.200;2022-12-26T00:58:57;52.85;;;22.45;;
26319;SDS011;14024;52.226;5.200;2022-12-26T01:01:23;51.40;;;22.60;;
26319;SDS011;14024;52.226;5.200;2022-12-26T01:03:49;56.47;;;23.77;;
26319;SDS011;14024;52.226;5.200;2022-12-26T01:06:16;57.15;;;24.65;;
26319;SDS011;14024;52.226;5.200;2022-12-26T01:08:43;58.90;;;24.83;;
26319;SDS011;14024;52.226;5.200;2022-12-26T01:11:10;55.25;;;22.90;;
26319;SDS011;14024;52.226;5.200;2022-12-26T01:13:36;59.92;;;24.13;;
26319;SDS011;14024;52.226;5.200;2022-12-26T01:16:03;59.78;;;24.88;;
26319;SDS011;14024;52.226;5.200;2022-12-26T01:18:30;59.95;;;25.25;;
26319;SDS011;14024;52.226;5.200;2022-12-26T01:20:59;61.70;;;24.65;;
26319;SDS011;14024;52.226;5.200;2022-12-26T01:23:26;64.40;;;25.85;;
26319;SDS011;14024;52.226;5.200;2022-12-26T01:25:52;55.63;;;24.92;;
26319;SDS011;14024;52.226;5.200;2022-12-26T01:28:18;57.50;;;25.25;;
26319;SDS011;14024;52.226;5.200;2022-12-26T01:30:44;62.53;;;25.38;;
26319;SDS011;14024;52.226;5.200;2022-12-26T01:33:10;60.97;;;26.20;;
26319;SDS011;14024;52.226;5.200;2022-12-26T01:35:36;58.22;;;25.52;;
26319;SDS011;14024;52.226;5.200;2022-12-26T01:38:02;57.70;;;25.77;;
26319;SDS011;14024;52.226;5.200;2022-12-26T01:40:28;63.63;;;27.58;;
26319;SDS011;14024;52.226;5.200;2022-12-26T01:42:54;63.25;;;25.35;;
26319;SDS011;14024;52.226;5.200;2022-12-26T01:45:21;60.78;;;25.92;;
26319;SDS011;14024;52.226;5.200;2022-12-26T01:47:48;66.25;;;28.17;;
26319;SDS011;14024;52.226;5.200;2022-12-26T01:50:23;65.03;;;27.08;;
26319;SDS011;14024;52.226;5.200;2022-12-26T01:52:50;65.70;;;26.95;;
26319;SDS011;14024;52.226;5.200;2022-12-26T01:55:18;64.78;;;26.95;;
26319;SDS011;14024;52.226;5.200;2022-12-26T01:57:46;64.40;;;27.23;;
26319;SDS011;14024;52.226;5.200;2022-12-26T02:00:14;66.35;;;26.67;;
26319;SDS011;14024;52.226;5.200;2022-12-26T02:02:40;62.65;;;26.55;;
26319;SDS011;14024;52.226;5.200;2022-12-26T02:05:26;62.70;;;27.13;;
26319;SDS011;14024;52.226;5.200;2022-12-26T02:10:30;63.15;;;24.67;;
26319;SDS011;14024;52.226;5.200;2022-12-26T02:12:58;63.00;;;28.13;;
26319;SDS011;14024;52.226;5.200;2022-12-26T02:15:24;66.80;;;28.23;;
26319;SDS011;14024;52.226;5.200;2022-12-26T02:17:50;61.60;;;27.52;;
26319;SDS011;14024;52.226;5.200;2022-12-26T02:20:21;68.43;;;29.23;;
26319;SDS011;14024;52.226;5.200;2022-12-26T02:35:27;64.68;;;27.23;;
26319;SDS011;14024;52.226;5.200;2022-12-26T02:40:46;56.10;;;24.55;;
26319;SDS011;14024;52.226;5.200;2022-12-26T02:43:17;59.95;;;25.83;;
26319;SDS011;14024;52.226;5.200;2022-12-26T02:45:48;56.78;;;24.70;;
26319;SDS011;14024;52.226;5.200;2022-12-26T02:54:09;52.67;;;23.73;;
26319;SDS011;14024;52.226;5.200;2022-12-26T02:56:56;51.20;;;23.60;;
26319;SDS011;14024;52.226;5.200;2022-12-26T02:59:45;60.35;;;24.00;;
26319;SDS011;14024;52.226;5.200;2022-12-26T03:02:35;56.35;;;24.00;;
26319;SDS011;14024;52.226;5.200;2022-12-26T03:05:23;54.60;;;24.55;;
26319;SDS011;14024;52.226;5.200;2022-12-26T03:08:10;48.92;;;22.98;;
26319;SDS011;14024;52.226;5.200;2022-12-26T03:10:57;48.67;;;22.33;;
26319;SDS011;14024;52.226;5.200;2022-12-26T03:13:42;51.38;;;22.10;;
26319;SDS011;14024;52.226;5.200;2022-12-26T03:16:09;47.25;;;22.00;;
26319;SDS011;14024;52.226;5.200;2022-12-26T03:18:57;51.78;;;22.67;;
26319;SDS011;14024;52.226;5.200;2022-12-26T03:21:25;44.45;;;21.15;;
26319;SDS011;14024;52.226;5.200;2022-12-26T03:23:52;43.97;;;21.25;;
26319;SDS011;14024;52.226;5.200;2022-12-26T03:26:25;53.83;;;20.98;;
26319;SDS011;14024;52.226;5.200;2022-12-26T03:29:03;44.63;;;21.00;;
26319;SDS011;14024;52.226;5.200;2022-12-26T03:31:48;44.83;;;20.48;;
26319;SDS011;14024;52.226;5.200;2022-12-26T03:34:14;43.65;;;20.90;;
26319;SDS011;14024;52.226;5.200;2022-12-26T03:48:23;54.35;;;24.45;;
26319;SDS011;14024;52.226;5.200;2022-12-26T03:51:12;56.92;;;23.80;;
26319;SDS011;14024;52.226;5.200;2022-12-26T03:56:48;53.92;;;24.30;;
26319;SDS011;14024;52.226;5.200;2022-12-26T03:59:37;51.40;;;22.92;;
26319;SDS011;14024;52.226;5.200;2022-12-26T04:02:23;56.83;;;27.33;;
26319;SDS011;14024;52.226;5.200;2022-12-26T04:05:10;53.50;;;23.05;;
26319;SDS011;14024;52.226;5.200;2022-12-26T04:07:56;54.08;;;25.55;;
26319;SDS011;14024;52.226;5.200;2022-12-26T04:10:46;55.38;;;23.75;;
26319;SDS011;14024;52.226;5.200;2022-12-26T04:13:36;60.10;;;25.95;;
26319;SDS011;14024;52.226;5.200;2022-12-26T04:16:36;54.60;;;23.38;;
26319;SDS011;14024;52.226;5.200;2022-12-26T04:24:56;49.75;;;21.65;;
26319;SDS011;14024;52.226;5.200;2022-12-26T04:27:43;45.53;;;20.60;;
26319;SDS011;14024;52.226;5.200;2022-12-26T04:30:27;40.97;;;21.38;;
26319;SDS011;14024;52.226;5.200;2022-12-26T04:33:15;36.88;;;18.92;;
26319;SDS011;14024;52.226;5.200;2022-12-26T04:36:05;39.72;;;19.80;;
26319;SDS011;14024;52.226;5.200;2022-12-26T04:38:52;40.60;;;18.70;;
26319;SDS011;14024;52.226;5.200;2022-12-26T04:41:38;36.40;;;17.90;;
26319;SDS011;14024;52.226;5.200;2022-12-26T04:44:23;40.38;;;19.13;;
26319;SDS011;14024;52.226;5.200;2022-12-26T04:46:51;35.95;;;17.70;;
26319;SDS011;14024;52.226;5.200;2022-12-26T04:49:17;85.18;;;19.40;;
26319;SDS011;14024;52.226;5.200;2022-12-26T04:52:09;34.35;;;16.73;;
26319;SDS011;14024;52.226;5.200;2022-12-26T04:57:02;29.20;;;14.77;;
26319;SDS011;14024;52.226;5.200;2022-12-26T04:59:28;30.73;;;15.27;;
26319;SDS011;14024;52.226;5.200;2022-12-26T05:01:54;33.45;;;14.57;;
26319;SDS011;14024;52.226;5.200;2022-12-26T05:04:38;30.35;;;14.05;;
26319;SDS011;14024;52.226;5.200;2022-12-26T05:07:24;27.05;;;13.52;;
26319;SDS011;14024;52.226;5.200;2022-12-26T05:10:20;28.58;;;13.82;;
26319;SDS011;14024;52.226;5.200;2022-12-26T05:12:46;26.35;;;13.10;;
26319;SDS011;14024;52.226;5.200;2022-12-26T05:15:12;29.98;;;13.48;;
26319;SDS011;14024;52.226;5.200;2022-12-26T05:17:39;23.73;;;12.52;;
26319;SDS011;14024;52.226;5.200;2022-12-26T05:20:23;30.77;;;12.88;;
26319;SDS011;14024;52.226;5.200;2022-12-26T05:23:15;25.35;;;12.27;;
26319;SDS011;14024;52.226;5.200;2022-12-26T05:26:01;29.33;;;12.87;;
26319;SDS011;14024;52.226;5.200;2022-12-26T05:28:48;23.88;;;11.75;;
26319;SDS011;14024;52.226;5.200;2022-12-26T05:31:16;22.58;;;11.90;;
26319;SDS011;14024;52.226;5.200;2022-12-26T05:33:43;28.33;;;12.45;;
26319;SDS011;14024;52.226;5.200;2022-12-26T05:36:29;20.27;;;10.50;;
26319;SDS011;14024;52.226;5.200;2022-12-26T05:38:56;21.15;;;11.45;;
26319;SDS011;14024;52.226;5.200;2022-12-26T05:41:22;22.58;;;11.25;;
26319;SDS011;14024;52.226;5.200;2022-12-26T05:43:48;23.77;;;11.02;;
26319;SDS011;14024;52.226;5.200;2022-12-26T05:46:14;20.23;;;10.90;;
26319;SDS011;14024;52.226;5.200;2022-12-26T05:48:40;19.35;;;10.75;;
26319;SDS011;14024;52.226;5.200;2022-12-26T05:51:06;19.88;;;10.48;;
26319;SDS011;14024;52.226;5.200;2022-12-26T05:53:33;20.73;;;10.77;;
26319;SDS011;14024;52.226;5.200;2022-12-26T05:56:06;24.48;;;11.75;;
26319;SDS011;14024;52.226;5.200;2022-12-26T05:58:33;23.52;;;11.68;;
26319;SDS011;14024;52.226;5.200;2022-12-26T06:01:05;21.70;;;10.48;;
26319;SDS011;14024;52.226;5.200;2022-12-26T06:03:31;21.67;;;10.73;;
26319;SDS011;14024;52.226;5.200;2022-12-26T06:05:57;21.75;;;10.93;;
26319;SDS011;14024;52.226;5.200;2022-12-26T06:08:23;19.98;;;10.50;;
26319;SDS011;14024;52.226;5.200;2022-12-26T06:10:49;18.90;;;9.82;;
26319;SDS011;14024;52.226;5.200;2022-12-26T06:13:15;17.65;;;9.77;;
26319;SDS011;14024;52.226;5.200;2022-12-26T06:15:41;20.67;;;9.15;;
26319;SDS011;14024;52.226;5.200;2022-12-26T06:18:07;18.45;;;9.65;;
26319;SDS011;14024;52.226;5.200;2022-12-26T06:20:33;18.58;;;9.25;;
26319;SDS011;14024;52.226;5.200;2022-12-26T06:22:59;19.98;;;8.70;;
26319;SDS011;14024;52.226;5.200;2022-12-26T06:25:25;17.88;;;8.30;;
26319;SDS011;14024;52.226;5.200;2022-12-26T06:27:51;19.33;;;8.98;;
26319;SDS011;14024;52.226;5.200;2022-12-26T06:30:17;15.07;;;7.00;;
26319;SDS011;14024;52.226;5.200;2022-12-26T06:32:43;16.10;;;7.43;;
26319;SDS011;14024;52.226;5.200;2022-12-26T06:35:09;18.90;;;8.25;;
26319;SDS011;14024;52.226;5.200;2022-12-26T06:37:35;17.00;;;7.25;;
26319;SDS011;14024;52.226;5.200;2022-12-26T06:40:01;12.13;;;6.90;;
26319;SDS011;14024;52.226;5.200;2022-12-26T06:42:27;13.85;;;7.38;;
26319;SDS011;14024;52.226;5.200;2022-12-26T06:44:53;16.60;;;7.90;;
26319;SDS011;14024;52.226;5.200;2022-12-26T06:47:19;12.10;;;6.85;;
26319;SDS011;14024;52.226;5.200;2022-12-26T06:49:45;16.42;;;7.53;;
26319;SDS011;14024;52.226;5.200;2022-12-26T06:52:11;19.08;;;7.68;;
26319;SDS011;14024;52.226;5.200;2022-12-26T06:54:38;12.48;;;7.07;;
26319;SDS011;14024;52.226;5.200;2022-12-26T06:57:04;14.15;;;7.28;;
26319;SDS011;14024;52.226;5.200;2022-12-26T06:59:30;13.32;;;6.57;;
26319;SDS011;14024;52.226;5.200;2022-12-26T07:01:56;13.35;;;6.68;;
26319;SDS011;14024;52.226;5.200;2022-12-26T07:04:23;12.70;;;6.57;;
26319;SDS011;14024;52.226;5.200;2022-12-26T07:06:50;14.50;;;7.57;;
26319;SDS011;14024;52.226;5.200;2022-12-26T07:09:16;15.18;;;6.68;;
26319;SDS011;14024;52.226;5.200;2022-12-26T07:11:46;12.10;;;6.15;;
26319;SDS011;14024;52.226;5.200;2022-12-26T07:14:13;16.70;;;7.03;;
26319;SDS011;14024;52.226;5.200;2022-12-26T07:16:40;14.82;;;6.22;;
26319;SDS011;14024;52.226;5.200;2022-12-26T07:19:06;13.20;;;6.90;;
26319;SDS011;14024;52.226;5.200;2022-12-26T07:21:32;10.52;;;6.10;;
26319;SDS011;14024;52.226;5.200;2022-12-26T07:23:58;12.80;;;5.85;;
26319;SDS011;14024;52.226;5.200;2022-12-26T07:26:24;11.20;;;6.05;;
26319;SDS011;14024;52.226;5.200;2022-12-26T07:28:54;15.00;;;6.28;;
26319;SDS011;14024;52.226;5.200;2022-12-26T07:31:20;16.40;;;6.32;;
26319;SDS011;14024;52.226;5.200;2022-12-26T07:33:49;13.35;;;5.53;;
26319;SDS011;14024;52.226;5.200;2022-12-26T07:36:15;11.45;;;5.72;;
26319;SDS011;14024;52.226;5.200;2022-12-26T07:38:41;10.18;;;5.00;;
26319;SDS011;14024;52.226;5.200;2022-12-26T07:41:07;14.73;;;5.72;;
26319;SDS011;14024;52.226;5.200;2022-12-26T07:43:52;15.15;;;6.50;;
26319;SDS011;14024;52.226;5.200;2022-12-26T07:46:18;8.27;;;4.85;;
26319;SDS011;14024;52.226;5.200;2022-12-26T07:48:44;16.95;;;6.65;;
26319;SDS011;14024;52.226;5.200;2022-12-26T07:51:10;14.30;;;5.78;;
26319;SDS011;14024;52.226;5.200;2022-12-26T07:53:37;11.20;;;5.30;;
26319;SDS011;14024;52.226;5.200;2022-12-26T07:56:03;15.57;;;6.95;;
26319;SDS011;14024;52.226;5.200;2022-12-26T07:58:29;17.83;;;5.43;;
26319;SDS011;14024;52.226;5.200;2022-12-26T08:00:55;12.13;;;6.13;;
26319;SDS011;14024;52.226;5.200;2022-12-26T08:03:24;23.15;;;6.47;;
26319;SDS011;14024;52.226;5.200;2022-12-26T08:05:50;11.88;;;5.10;;
26319;SDS011;14024;52.226;5.200;2022-12-26T08:08:16;14.52;;;5.50;;
26319;SDS011;14024;52.226;5.200;2022-12-26T08:10:42;14.70;;;5.20;;
26319;SDS011;14024;52.226;5.200;2022-12-26T08:13:08;12.35;;;4.50;;
26319;SDS011;14024;52.226;5.200;2022-12-26T08:15:36;13.45;;;4.57;;
26319;SDS011;14024;52.226;5.200;2022-12-26T08:18:03;11.65;;;4.80;;
26319;SDS011;14024;52.226;5.200;2022-12-26T08:20:29;15.73;;;5.05;;
26319;SDS011;14024;52.226;5.200;2022-12-26T08:22:55;12.73;;;5.05;;
26319;SDS011;14024;52.226;5.200;2022-12-26T08:25:21;12.98;;;4.93;;
26319;SDS011;14024;52.226;5.200;2022-12-26T08:27:47;15.38;;;4.55;;
26319;SDS011;14024;52.226;5.200;2022-12-26T08:30:13;14.23;;;4.53;;
26319;SDS011;14024;52.226;5.200;2022-12-26T08:32:39;12.07;;;4.97;;
26319;SDS011;14024;52.226;5.200;2022-12-26T08:35:05;10.68;;;5.20;;
26319;SDS011;14024;52.226;5.200;2022-12-26T08:37:31;9.57;;;5.15;;
26319;SDS011;14024;52.226;5.200;2022-12-26T08:39:57;11.82;;;5.03;;
26319;SDS011;14024;52.226;5.200;2022-12-26T08:42:23;9.25;;;5.40;;
26319;SDS011;14024;52.226;5.200;2022-12-26T08:44:49;9.27;;;4.80;;
26319;SDS011;14024;52.226;5.200;2022-12-26T08:47:15;8.98;;;4.97;;
26319;SDS011;14024;52.226;5.200;2022-12-26T08:49:42;11.32;;;5.03;;
26319;SDS011;14024;52.226;5.200;2022-12-26T08:52:08;13.45;;;6.18;;
26319;SDS011;14024;52.226;5.200;2022-12-26T08:54:34;15.18;;;6.32;;
26319;SDS011;14024;52.226;5.200;2022-12-26T08:57:00;17.85;;;6.35;;
26319;SDS011;14024;52.226;5.200;2022-12-26T08:59:26;12.48;;;5.68;;
26319;SDS011;14024;52.226;5.200;2022-12-26T09:01:52;14.60;;;6.22;;
26319;SDS011;14024;52.226;5.200;2022-12-26T09:04:18;12.93;;;5.57;;
26319;SDS011;14024;52.226;5.200;2022-12-26T09:06:43;10.95;;;5.82;;
26319;SDS011;14024;52.226;5.200;2022-12-26T09:09:10;14.27;;;5.60;;
26319;SDS011;14024;52.226;5.200;2022-12-26T09:11:36;16.23;;;6.57;;
26319;SDS011;14024;52.226;5.200;2022-12-26T09:14:03;18.45;;;5.07;;
26319;SDS011;14024;52.226;5.200;2022-12-26T09:16:30;23.08;;;5.15;;
26319;SDS011;14024;52.226;5.200;2022-12-26T09:18:57;12.77;;;3.92;;
26319;SDS011;14024;52.226;5.200;2022-12-26T09:21:24;10.90;;;3.85;;
26319;SDS011;14024;52.226;5.200;2022-12-26T09:23:54;10.80;;;4.38;;
26319;SDS011;14024;52.226;5.200;2022-12-26T09:26:20;12.85;;;4.00;;
26319;SDS011;14024;52.226;5.200;2022-12-26T09:28:46;22.85;;;4.78;;
26319;SDS011;14024;52.226;5.200;2022-12-26T09:31:13;25.33;;;4.80;;
26319;SDS011;14024;52.226;5.200;2022-12-26T09:33:39;17.52;;;3.90;;
26319;SDS011;14024;52.226;5.200;2022-12-26T09:36:06;15.07;;;4.35;;
26319;SDS011;14024;52.226;5.200;2022-12-26T09:38:33;24.02;;;4.50;;
26319;SDS011;14024;52.226;5.200;2022-12-26T09:41:11;12.30;;;3.92;;
26319;SDS011;14024;52.226;5.200;2022-12-26T09:46:30;17.67;;;3.05;;
26319;SDS011;14024;52.226;5.200;2022-12-26T09:48:58;20.23;;;4.20;;
26319;SDS011;14024;52.226;5.200;2022-12-26T09:51:25;15.00;;;3.58;;
26319;SDS011;14024;52.226;5.200;2022-12-26T09:53:52;14.77;;;4.30;;
26319;SDS011;14024;52.226;5.200;2022-12-26T09:56:18;21.13;;;4.18;;
26319;SDS011;14024;52.226;5.200;2022-12-26T10:01:19;22.50;;;4.05;;
26319;SDS011;14024;52.226;5.200;2022-12-26T10:03:51;22.50;;;3.85;;
26319;SDS011;14024;52.226;5.200;2022-12-26T10:11:32;24.60;;;4.32;;
26319;SDS011;14024;52.226;5.200;2022-12-26T10:14:07;20.52;;;3.85;;
26319;SDS011;14024;52.226;5.200;2022-12-26T10:16:52;24.38;;;4.10;;
26319;SDS011;14024;52.226;5.200;2022-12-26T10:19:27;17.38;;;2.85;;
26319;SDS011;14024;52.226;5.200;2022-12-26T10:24:24;18.88;;;4.22;;
26319;SDS011;14024;52.226;5.200;2022-12-26T10:26:55;12.20;;;3.75;;
26319;SDS011;14024;52.226;5.200;2022-12-26T10:29:26;15.48;;;3.10;;
26319;SDS011;14024;52.226;5.200;2022-12-26T10:31:55;14.18;;;3.63;;
26319;SDS011;14024;52.226;5.200;2022-12-26T10:34:22;12.15;;;3.00;;
26319;SDS011;14024;52.226;5.200;2022-12-26T10:36:50;11.00;;;3.85;;
26319;SDS011;14024;52.226;5.200;2022-12-26T10:39:29;13.15;;;3.08;;
26319;SDS011;14024;52.226;5.200;2022-12-26T10:42:02;6.45;;;2.28;;
26319;SDS011;14024;52.226;5.200;2022-12-26T10:44:28;13.88;;;4.22;;
26319;SDS011;14024;52.226;5.200;2022-12-26T10:47:01;12.77;;;2.22;;
26319;SDS011;14024;52.226;5.200;2022-12-26T10:49:30;8.23;;;1.70;;
26319;SDS011;14024;52.226;5.200;2022-12-26T10:51:58;10.30;;;2.08;;
26319;SDS011;14024;52.226;5.200;2022-12-26T10:54:25;12.90;;;2.38;;
26319;SDS011;14024;52.226;5.200;2022-12-26T10:56:51;14.15;;;2.63;;
26319;SDS011;14024;52.226;5.200;2022-12-26T10:59:19;16.90;;;2.28;;
26319;SDS011;14024;52.226;5.200;2022-12-26T11:01:46;9.30;;;2.10;;
26319;SDS011;14024;52.226;5.200;2022-12-26T11:04:22;7.57;;;1.85;;
26319;SDS011;14024;52.226;5.200;2022-12-26T11:06:49;7.68;;;1.80;;
26319;SDS011;14024;52.226;5.200;2022-12-26T11:12:04;13.60;;;2.42;;
26319;SDS011;14024;52.226;5.200;2022-12-26T11:17:01;11.00;;;2.33;;
26319;SDS011;14024;52.226;5.200;2022-12-26T11:19:28;8.68;;;1.80;;
26319;SDS011;14024;52.226;5.200;2022-12-26T11:21:59;8.60;;;2.33;;
26319;SDS011;14024;52.226;5.200;2022-12-26T11:24:38;9.10;;;2.33;;
26319;SDS011;14024;52.226;5.200;2022-12-26T11:27:17;14.98;;;2.22;;
26319;SDS011;14024;52.226;5.200;2022-12-26T11:29:44;9.85;;;1.67;;
26319;SDS011;14024;52.226;5.200;2022-12-26T11:32:16;14.55;;;3.47;;
26319;SDS011;14024;52.226;5.200;2022-12-26T11:34:44;9.23;;;1.75;;
26319;SDS011;14024;52.226;5.200;2022-12-26T11:39:49;14.73;;;3.35;;
26319;SDS011;14024;52.226;5.200;2022-12-26T11:42:17;23.95;;;3.00;;
26319;SDS011;14024;52.226;5.200;2022-12-26T11:44:44;10.23;;;2.33;;
26319;SDS011;14024;52.226;5.200;2022-12-26T11:47:16;10.80;;;2.30;;
26319;SDS011;14024;52.226;5.200;2022-12-26T11:54:59;8.65;;;1.70;;
26319;SDS011;14024;52.226;5.200;2022-12-26T11:57:27;16.05;;;2.78;;
26319;SDS011;14024;52.226;5.200;2022-12-26T11:59:53;11.35;;;1.40;;
26319;SDS011;14024;52.226;5.200;2022-12-26T12:02:21;6.28;;;1.98;;
26319;SDS011;14024;52.226;5.200;2022-12-26T12:04:49;13.18;;;2.65;;
26319;SDS011;14024;52.226;5.200;2022-12-26T12:10:03;7.93;;;2.08;;
26319;SDS011;14024;52.226;5.200;2022-12-26T12:12:34;6.70;;;1.60;;
26319;SDS011;14024;52.226;5.200;2022-12-26T12:17:47;5.13;;;1.30;;
26319;SDS011;14024;52.226;5.200;2022-12-26T12:20:25;14.10;;;2.10;;
26319;SDS011;14024;52.226;5.200;2022-12-26T12:23:16;12.38;;;1.88;;
26319;SDS011;14024;52.226;5.200;2022-12-26T12:28:30;8.70;;;1.50;;
26319;SDS011;14024;52.226;5.200;2022-12-26T12:48:52;10.02;;;1.45;;
26319;SDS011;14024;52.226;5.200;2022-12-26T12:51:27;5.70;;;2.22;;
26319;SDS011;14024;52.226;5.200;2022-12-26T13:01:42;3.60;;;1.80;;
26319;SDS011;14024;52.226;5.200;2022-12-26T13:06:54;9.82;;;2.17;;
26319;SDS011;14024;52.226;5.200;2022-12-26T13:09:27;5.47;;;2.25;;
26319;SDS011;14024;52.226;5.200;2022-12-26T13:11:56;11.45;;;2.03;;
26319;SDS011;14024;52.226;5.200;2022-12-26T13:14:24;3.42;;;1.73;;
26319;SDS011;14024;52.226;5.200;2022-12-26T13:16:56;10.25;;;2.58;;
26319;SDS011;14024;52.226;5.200;2022-12-26T13:19:24;7.43;;;2.95;;
26319;SDS011;14024;52.226;5.200;2022-12-26T13:21:51;12.07;;;2.20;;
26319;SDS011;14024;52.226;5.200;2022-12-26T13:24:22;12.88;;;2.38;;
26319;SDS011;14024;52.226;5.200;2022-12-26T13:26:57;5.93;;;2.00;;
26319;SDS011;14024;52.226;5.200;2022-12-26T13:31:59;13.30;;;2.63;;
26319;SDS011;14024;52.226;5.200;2022-12-26T13:34:25;18.20;;;2.60;;
26319;SDS011;14024;52.226;5.200;2022-12-26T13:36:53;15.85;;;2.60;;
26319;SDS011;14024;52.226;5.200;2022-12-26T13:41:46;11.55;;;2.30;;
26319;SDS011;14024;52.226;5.200;2022-12-26T13:44:32;12.52;;;2.40;;
26319;SDS011;14024;52.226;5.200;2022-12-26T13:46:59;18.77;;;3.20;;
26319;SDS011;14024;52.226;5.200;2022-12-26T13:55:28;14.27;;;3.28;;
26319;SDS011;14024;52.226;5.200;2022-12-26T13:57:40;17.48;;;5.65;;
26319;SDS011;14024;52.226;5.200;2022-12-26T14:03:22;21.25;;;3.97;;
26319;SDS011;14024;52.226;5.200;2022-12-26T14:06:38;10.05;;;2.75;;
26319;SDS011;14024;52.226;5.200;2022-12-26T14:08:59;18.20;;;2.67;;
26319;SDS011;14024;52.226;5.200;2022-12-26T14:11:32;12.30;;;2.20;;
26319;SDS011;14024;52.226;5.200;2022-12-26T14:38:32;7.57;;;2.47;;
26319;SDS011;14024;52.226;5.200;2022-12-26T14:43:38;10.95;;;2.45;;
26319;SDS011;14024;52.226;5.200;2022-12-26T14:46:09;11.68;;;2.50;;
26319;SDS011;14024;52.226;5.200;2022-12-26T14:48:54;15.65;;;2.42;;
26319;SDS011;14024;52.226;5.200;2022-12-26T14:51:26;10.38;;;2.53;;
26319;SDS011;14024;52.226;5.200;2022-12-26T14:54:12;13.63;;;2.10;;
26319;SDS011;14024;52.226;5.200;2022-12-26T14:56:41;12.52;;;3.10;;
26319;SDS011;14024;52.226;5.200;2022-12-26T15:02:05;7.22;;;1.83;;
26319;SDS011;14024;52.226;5.200;2022-12-26T15:38:38;15.80;;;3.70;;
26319;SDS011;14024;52.226;5.200;2022-12-26T15:43:45;7.70;;;2.13;;
26319;SDS011;14024;52.226;5.200;2022-12-26T15:46:21;8.07;;;2.45;;
26319;SDS011;14024;52.226;5.200;2022-12-26T15:51:20;11.18;;;2.53;;
26319;SDS011;14024;52.226;5.200;2022-12-26T15:59:15;13.25;;;3.47;;
26319;SDS011;14024;52.226;5.200;2022-12-26T16:01:47;11.95;;;3.25;;
26319;SDS011;14024;52.226;5.200;2022-12-26T16:04:21;14.20;;;3.33;;
26319;SDS011;14024;52.226;5.200;2022-12-26T16:09:22;16.17;;;3.60;;
26319;SDS011;14024;52.226;5.200;2022-12-26T16:11:55;17.90;;;4.93;;
26319;SDS011;14024;52.226;5.200;2022-12-26T16:14:23;18.42;;;3.88;;
26319;SDS011;14024;52.226;5.200;2022-12-26T16:16:50;19.83;;;4.15;;
26319;SDS011;14024;52.226;5.200;2022-12-26T16:19:20;14.13;;;4.30;;
26319;SDS011;14024;52.226;5.200;2022-12-26T16:21:49;14.68;;;4.00;;
26319;SDS011;14024;52.226;5.200;2022-12-26T16:24:35;16.42;;;4.63;;
26319;SDS011;14024;52.226;5.200;2022-12-26T16:27:02;18.85;;;4.95;;
26319;SDS011;14024;52.226;5.200;2022-12-26T16:29:30;15.45;;;5.40;;
26319;SDS011;14024;52.226;5.200;2022-12-26T16:32:03;19.90;;;5.32;;
26319;SDS011;14024;52.226;5.200;2022-12-26T16:34:30;23.33;;;5.55;;
26319;SDS011;14024;52.226;5.200;2022-12-26T16:36:57;17.98;;;5.43;;
26319;SDS011;14024;52.226;5.200;2022-12-26T16:39:23;15.93;;;6.00;;
26319;SDS011;14024;52.226;5.200;2022-12-26T16:41:57;21.25;;;5.85;;
26319;SDS011;14024;52.226;5.200;2022-12-26T16:44:36;14.82;;;5.63;;
26319;SDS011;14024;52.226;5.200;2022-12-26T16:47:04;25.75;;;6.75;;
26319;SDS011;14024;52.226;5.200;2022-12-26T16:49:30;24.77;;;7.32;;
26319;SDS011;14024;52.226;5.200;2022-12-26T16:51:56;24.98;;;8.05;;
26319;SDS011;14024;52.226;5.200;2022-12-26T16:56:49;39.90;;;14.43;;
26319;SDS011;14024;52.226;5.200;2022-12-26T16:59:20;29.00;;;12.43;;
26319;SDS011;14024;52.226;5.200;2022-12-26T17:01:51;42.88;;;11.90;;
26319;SDS011;14024;52.226;5.200;2022-12-26T17:04:23;25.38;;;9.68;;
26319;SDS011;14024;52.226;5.200;2022-12-26T17:06:56;28.02;;;8.90;;
26319;SDS011;14024;52.226;5.200;2022-12-26T17:09:28;22.40;;;8.55;;
26319;SDS011;14024;52.226;5.200;2022-12-26T17:11:56;17.80;;;6.53;;
26319;SDS011;14024;52.226;5.200;2022-12-26T17:14:33;14.57;;;6.03;;
26319;SDS011;14024;52.226;5.200;2022-12-26T17:17:02;25.60;;;5.72;;
26319;SDS011;14024;52.226;5.200;2022-12-26T17:19:29;15.30;;;5.43;;
26319;SDS011;14024;52.226;5.200;2022-12-26T17:22:17;14.60;;;6.10;;
26319;SDS011;14024;52.226;5.200;2022-12-26T17:24:44;20.60;;;5.47;;
26319;SDS011;14024;52.226;5.200;2022-12-26T17:29:47;14.38;;;5.18;;
26319;SDS011;14024;52.226;5.200;2022-12-26T17:34:52;25.90;;;6.15;;
26319;SDS011;14024;52.226;5.200;2022-12-26T17:37:22;17.70;;;5.90;;
26319;SDS011;14024;52.226;5.200;2022-12-26T17:39:52;15.35;;;5.53;;
26319;SDS011;14024;52.226;5.200;2022-12-26T17:42:19;21.20;;;6.47;;
26319;SDS011;14024;52.226;5.200;2022-12-26T17:44:45;27.70;;;5.78;;
26319;SDS011;14024;52.226;5.200;2022-12-26T17:47:19;18.85;;;6.28;;
26319;SDS011;14024;52.226;5.200;2022-12-26T17:49:46;20.25;;;6.20;;
26319;SDS011;14024;52.226;5.200;2022-12-26T17:52:12;22.38;;;6.57;;
26319;SDS011;14024;52.226;5.200;2022-12-26T17:54:39;21.83;;;6.13;;
26319;SDS011;14024;52.226;5.200;2022-12-26T17:57:05;17.10;;;4.82;;
26319;SDS011;14024;52.226;5.200;2022-12-26T17:59:31;12.00;;;4.80;;
26319;SDS011;14024;52.226;5.200;2022-12-26T18:01:57;15.05;;;4.82;;
26319;SDS011;14024;52.226;5.200;2022-12-26T18:04:23;21.42;;;5.18;;
26319;SDS011;14024;52.226;5.200;2022-12-26T18:06:52;14.50;;;5.80;;
26319;SDS011;14024;52.226;5.200;2022-12-26T18:09:23;17.73;;;6.13;;
26319;SDS011;14024;52.226;5.200;2022-12-26T18:11:49;20.95;;;7.10;;
26319;SDS011;14024;52.226;5.200;2022-12-26T18:14:16;19.80;;;7.00;;
26319;SDS011;14024;52.226;5.200;2022-12-26T18:16:42;16.80;;;5.90;;